createdAt,value
2019-06-08T00:01:01.408Z,56.56
2019-06-08T00:03:31.961Z,56.29
2019-06-08T00:06:01.624Z,56.47
2019-06-08T00:08:31.040Z,56.15
2019-06-08T00:11:00.695Z,55.16
2019-06-08T00:13:30.465Z,54.97
2019-06-08T00:16:00.224Z,54.83
2019-06-08T00:18:29.696Z,54.46
2019-06-08T00:21:00.115Z,54.33
2019-06-08T00:23:29.520Z,54.47
2019-06-08T00:25:59.533Z,54.39
2019-06-08T00:28:29.050Z,54.37
2019-06-08T00:31:00.068Z,54.25
2019-06-08T00:33:29.548Z,54.21
2019-06-08T00:36:02.030Z,54.09
2019-06-08T00:38:31.525Z,53.90
2019-06-08T00:41:01.200Z,53.87
2019-06-08T00:43:30.749Z,53.85
2019-06-08T00:46:01.131Z,53.81
2019-06-08T00:48:30.674Z,53.30
2019-06-08T00:51:00.782Z,53.06
2019-06-08T00:53:30.430Z,53.28
2019-06-08T00:55:59.941Z,53.46
2019-06-08T00:58:30.870Z,53.87
2019-06-08T01:01:00.387Z,53.94
2019-06-08T01:03:30.074Z,54.23
2019-06-08T01:05:59.636Z,54.03
2019-06-08T01:08:29.375Z,54.10
2019-06-08T01:10:58.856Z,54.19
2019-06-08T01:13:28.995Z,54.49
2019-06-08T01:15:58.859Z,54.66
2019-06-08T01:18:29.370Z,54.52
2019-06-08T01:20:58.882Z,54.63
2019-06-08T01:23:28.581Z,54.64
2019-06-08T01:25:59.510Z,54.58
2019-06-08T01:28:30.200Z,54.03
2019-06-08T01:31:01.059Z,54.32
2019-06-08T01:33:30.888Z,54.55
2019-06-08T01:36:00.293Z,54.52
2019-06-08T01:38:29.687Z,54.53
2019-06-08T01:41:00.355Z,54.71
2019-06-08T01:43:29.727Z,54.95
2019-06-08T01:46:03.183Z,55.06
2019-06-08T01:48:32.779Z,55.11
2019-06-08T01:51:02.443Z,55.43
2019-06-08T01:53:33.956Z,55.60
2019-06-08T01:56:03.351Z,55.40
2019-06-08T01:58:33.505Z,55.76
2019-06-08T02:01:03.406Z,56.15
2019-06-08T02:03:34.682Z,56.01
2019-06-08T02:06:04.736Z,56.05
2019-06-08T02:08:34.746Z,55.96
2019-06-08T02:11:04.559Z,55.81
2019-06-08T02:13:35.282Z,55.85
2019-06-08T02:16:04.819Z,55.81
2019-06-08T02:18:46.810Z,55.58
2019-06-08T02:21:07.382Z,55.49
2019-06-08T02:23:36.918Z,55.72
2019-06-08T02:26:06.325Z,55.85
2019-06-08T02:28:35.953Z,55.47
2019-06-08T02:31:05.545Z,55.10
2019-06-08T02:33:37.320Z,55.24
2019-06-08T02:36:06.989Z,54.95
2019-06-08T02:38:36.390Z,54.85
2019-06-08T02:41:06.155Z,54.75
2019-06-08T02:43:37.705Z,54.73
2019-06-08T02:46:06.928Z,54.78
2019-06-08T02:49:00.102Z,54.62
2019-06-08T02:51:08.990Z,54.05
2019-06-08T02:53:41.414Z,54.33
2019-06-08T02:56:15.404Z,54.40
2019-06-08T02:58:44.034Z,54.28
2019-06-08T03:01:14.833Z,54.46
2019-06-08T03:03:45.359Z,54.46
2019-06-08T03:06:15.401Z,54.68
2019-06-08T03:08:48.130Z,55.09
2019-06-08T03:11:22.845Z,55.05
2019-06-08T03:13:57.545Z,54.77
2019-06-08T03:16:27.200Z,55.02
2019-06-08T03:18:56.765Z,55.11
2019-06-08T03:21:26.201Z,55.10
2019-06-08T03:23:55.601Z,55.13
2019-06-08T03:26:29.666Z,55.06
2019-06-08T03:29:00.214Z,54.91
2019-06-08T03:31:29.608Z,55.33
2019-06-08T03:33:59.084Z,55.45
2019-06-08T03:36:28.497Z,55.29
2019-06-08T03:38:58.033Z,55.40
2019-06-08T03:41:27.567Z,55.40
2019-06-08T03:43:57.004Z,55.24
2019-06-08T03:46:31.772Z,55.02
2019-06-08T03:49:04.343Z,55.13
2019-06-08T03:51:36.067Z,55.17
2019-06-08T03:54:05.664Z,55.03
2019-06-08T03:56:35.785Z,55.29
2019-06-08T03:59:05.862Z,55.35
2019-06-08T04:01:35.413Z,55.39
2019-06-08T04:04:05.046Z,55.20
2019-06-08T04:06:37.860Z,55.03
2019-06-08T04:09:08.180Z,54.96
2019-06-08T04:11:37.899Z,55.13
2019-06-08T04:14:07.873Z,55.25
2019-06-08T04:16:38.327Z,55.06
2019-06-08T04:19:13.467Z,55.49
2019-06-08T04:21:44.310Z,55.39
2019-06-08T04:24:13.811Z,55.09
2019-06-08T04:26:45.488Z,55.40
2019-06-08T04:29:15.629Z,55.49
2019-06-08T04:31:46.042Z,55.54
2019-06-08T04:34:15.538Z,55.41
2019-06-08T04:36:46.309Z,55.55
2019-06-08T04:39:19.030Z,55.57
2019-06-08T04:41:48.671Z,55.22
2019-06-08T04:44:18.376Z,55.34
2019-06-08T04:46:49.526Z,55.48
2019-06-08T04:49:19.167Z,55.69
2019-06-08T04:51:50.122Z,55.65
2019-06-08T04:54:19.522Z,55.72
2019-06-08T04:56:49.632Z,55.70
2019-06-08T04:59:19.479Z,55.73
2019-06-08T05:01:49.496Z,55.87
2019-06-08T05:04:19.417Z,55.66
2019-06-08T05:06:49.534Z,55.90
2019-06-08T05:09:19.431Z,55.97
2019-06-08T05:11:49.909Z,56.25
2019-06-08T05:14:21.052Z,56.19
2019-06-08T05:16:53.601Z,56.34
2019-06-08T05:19:23.498Z,56.29
2019-06-08T05:21:52.892Z,56.28
2019-06-08T05:24:22.498Z,56.51
2019-06-08T05:26:53.798Z,56.42
2019-06-08T05:29:23.178Z,56.72
2019-06-08T05:31:52.572Z,56.75
2019-06-08T05:34:22.151Z,56.59
2019-06-08T05:36:51.678Z,56.82
2019-06-08T05:39:21.206Z,56.51
2019-06-08T05:41:51.333Z,56.50
2019-06-08T05:44:21.095Z,56.61
2019-06-08T05:46:50.812Z,57.51
2019-06-08T05:49:20.414Z,58.48
2019-06-08T05:51:50.210Z,59.46
2019-06-08T05:54:20.616Z,59.71
2019-06-08T05:56:50.509Z,60.26
2019-06-08T05:59:25.785Z,60.97
2019-06-08T06:01:52.268Z,61.63
2019-06-08T06:04:23.545Z,62.41
2019-06-08T06:06:55.715Z,62.70
2019-06-08T06:09:26.020Z,62.99
2019-06-08T06:11:55.438Z,63.03
2019-06-08T06:14:24.991Z,62.95
2019-06-08T06:16:54.795Z,62.82
2019-06-08T06:19:24.428Z,62.22
2019-06-08T06:21:54.310Z,62.59
2019-06-08T06:24:23.838Z,62.66
2019-06-08T06:26:53.560Z,62.63
2019-06-08T06:29:23.199Z,62.36
2019-06-08T06:31:52.720Z,62.04
2019-06-08T06:34:22.371Z,62.25
2019-06-08T06:36:52.219Z,61.90
2019-06-08T06:39:22.052Z,61.84
2019-06-08T06:41:55.763Z,61.87
2019-06-08T06:44:25.314Z,62.24
2019-06-08T06:46:54.870Z,62.52
2019-06-08T06:49:24.315Z,62.59
2019-06-08T06:51:53.871Z,62.27
2019-06-08T06:54:23.563Z,61.51
2019-06-08T06:56:54.064Z,61.44
2019-06-08T06:59:25.477Z,61.18
2019-06-08T07:01:57.488Z,60.23
2019-06-08T07:04:26.048Z,59.52
2019-06-08T07:06:55.447Z,58.84
2019-06-08T07:09:24.947Z,58.24
2019-06-08T07:11:56.119Z,58.39
2019-06-08T07:14:25.877Z,57.52
2019-06-08T07:16:56.134Z,57.34
2019-06-08T07:19:25.649Z,57.83
2019-06-08T07:21:55.287Z,57.57
2019-06-08T07:24:24.775Z,57.22
2019-06-08T07:26:55.234Z,57.50
2019-06-08T07:29:25.818Z,57.10
2019-06-08T07:31:56.277Z,55.47
2019-06-08T07:34:25.704Z,54.55
2019-06-08T07:36:55.528Z,54.50
2019-06-08T07:39:25.165Z,54.23
2019-06-08T07:41:55.846Z,54.54
2019-06-08T07:44:25.476Z,54.99
2019-06-08T07:46:55.811Z,54.41
2019-06-08T07:49:31.561Z,54.75
2019-06-08T07:52:09.417Z,54.79
2019-06-08T07:54:34.563Z,54.84
2019-06-08T07:57:04.130Z,54.49
2019-06-08T07:59:33.750Z,54.73
2019-06-08T08:02:03.602Z,54.79
2019-06-08T08:04:33.033Z,55.20
2019-06-08T08:07:02.504Z,55.65
2019-06-08T08:09:32.211Z,55.00
2019-06-08T08:12:05.024Z,55.18
2019-06-08T08:16:00.708Z,54.01
2019-06-08T08:18:30.439Z,53.91
2019-06-08T08:21:10.512Z,53.33
2019-06-08T08:23:32.438Z,53.49
2019-06-08T08:26:03.610Z,53.68
2019-06-08T08:28:33.595Z,52.97
2019-06-08T08:31:07.733Z,52.89
2019-06-08T08:33:34.569Z,52.76
2019-06-08T08:36:04.149Z,52.71
2019-06-08T08:38:33.915Z,52.74
2019-06-08T08:41:07.410Z,52.40
2019-06-08T08:43:34.545Z,52.41
2019-06-08T08:46:04.227Z,52.66
2019-06-08T08:48:33.626Z,52.65
2019-06-08T08:51:08.369Z,52.41
2019-06-08T08:53:34.630Z,51.89
2019-06-08T08:56:04.135Z,51.66
2019-06-08T08:58:35.186Z,51.79
2019-06-08T09:01:08.230Z,52.35
2019-06-08T09:03:39.579Z,52.25
2019-06-08T09:06:09.178Z,51.49
2019-06-08T09:08:44.475Z,50.73
2019-06-08T09:11:14.005Z,50.36
2019-06-08T09:13:43.593Z,50.40
2019-06-08T09:16:17.716Z,50.47
2019-06-08T09:18:47.965Z,50.75
2019-06-08T09:21:18.677Z,50.86
2019-06-08T09:23:48.704Z,50.48
2019-06-08T09:26:18.482Z,51.08
2019-06-08T09:28:51.690Z,51.35
2019-06-08T09:31:24.570Z,51.40
2019-06-08T09:34:04.469Z,51.88
2019-06-08T09:36:28.498Z,51.69
2019-06-08T09:39:00.946Z,51.85
2019-06-08T09:41:31.240Z,51.41
2019-06-08T09:44:05.575Z,51.67
2019-06-08T09:46:34.608Z,52.15
2019-06-08T09:49:08.607Z,52.62
2019-06-08T09:51:37.921Z,52.41
2019-06-08T09:54:12.439Z,52.48
2019-06-08T09:56:40.685Z,52.67
2019-06-08T09:59:11.752Z,52.57
2019-06-08T10:01:41.666Z,51.84
2019-06-08T10:04:11.234Z,52.05
2019-06-08T10:06:41.112Z,52.00
2019-06-08T10:09:10.860Z,52.05
2019-06-08T10:11:42.225Z,52.06
2019-06-08T10:14:12.666Z,51.72
2019-06-08T10:16:42.502Z,51.35
2019-06-08T10:19:12.105Z,51.60
2019-06-08T10:21:44.663Z,51.02
2019-06-08T10:24:14.255Z,50.93
2019-06-08T10:26:43.873Z,50.99
2019-06-08T10:29:13.289Z,51.46
2019-06-08T10:31:43.930Z,51.86
2019-06-08T10:34:15.093Z,52.24
2019-06-08T10:36:44.922Z,52.08
2019-06-08T10:39:16.087Z,51.53
2019-06-08T10:41:51.300Z,51.22
2019-06-08T10:44:18.566Z,51.26
2019-06-08T10:46:48.362Z,51.86
2019-06-08T10:49:18.619Z,51.67
2019-06-08T10:51:49.657Z,52.00
2019-06-08T10:54:19.059Z,51.66
2019-06-08T10:56:48.777Z,51.43
2019-06-08T10:59:18.656Z,51.81
2019-06-08T11:01:48.036Z,50.73
2019-06-08T11:04:18.616Z,50.20
2019-06-08T11:06:49.169Z,50.59
2019-06-08T11:09:19.031Z,49.93
2019-06-08T11:11:48.572Z,49.38
2019-06-08T11:14:19.539Z,48.97
2019-06-08T11:16:49.207Z,48.99
2019-06-08T11:19:18.761Z,48.83
2019-06-08T11:21:48.408Z,49.01
2019-06-08T11:24:24.822Z,48.80
2019-06-08T11:26:48.971Z,49.03
2019-06-08T11:29:18.946Z,47.52
2019-06-08T11:31:50.932Z,48.36
2019-06-08T11:34:21.820Z,48.94
2019-06-08T11:36:51.572Z,48.98
2019-06-08T11:39:22.476Z,49.38
2019-06-08T11:41:52.027Z,49.49
2019-06-08T11:44:21.435Z,49.12
2019-06-08T11:46:50.927Z,48.40
2019-06-08T11:49:20.416Z,48.37
2019-06-08T11:51:50.009Z,48.26
2019-06-08T11:54:33.003Z,47.79
2019-06-08T11:56:53.775Z,46.39
2019-06-08T11:59:24.190Z,46.53
2019-06-08T12:01:58.480Z,46.88
2019-06-08T12:04:28.209Z,47.25
2019-06-08T12:06:58.588Z,47.50
2019-06-08T12:09:28.652Z,47.72
2019-06-08T12:11:58.205Z,47.48
2019-06-08T12:14:28.057Z,46.80
2019-06-08T12:16:58.125Z,46.63
2019-06-08T12:19:31.499Z,46.14
2019-06-08T12:22:00.195Z,44.32
2019-06-08T12:24:41.455Z,43.92
2019-06-08T12:27:10.191Z,43.79
2019-06-08T12:29:31.918Z,44.39
2019-06-08T12:32:01.305Z,44.97
2019-06-08T12:34:30.704Z,44.52
2019-06-08T12:37:00.157Z,44.96
2019-06-08T12:39:29.531Z,44.08
2019-06-08T12:41:58.935Z,44.08
2019-06-08T12:44:29.141Z,43.85
2019-06-08T12:46:58.860Z,43.45
2019-06-08T12:49:28.649Z,43.37
2019-06-08T12:51:58.447Z,42.04
2019-06-08T12:54:28.410Z,41.05
2019-06-08T12:57:00.598Z,39.55
2019-06-08T12:59:29.046Z,39.21
2019-06-08T13:01:58.693Z,39.31
2019-06-08T13:04:28.702Z,38.15
2019-06-08T13:07:00.870Z,38.88
2019-06-08T13:09:30.373Z,40.08
2019-06-08T13:11:59.832Z,41.52
2019-06-08T13:14:29.235Z,42.21
2019-06-08T13:17:01.153Z,42.87
2019-06-08T13:19:30.345Z,41.94
2019-06-08T13:22:02.872Z,42.17
2019-06-08T13:24:32.276Z,40.95
2019-06-08T13:27:03.428Z,39.32
2019-06-08T13:29:32.847Z,39.28
2019-06-08T13:32:02.343Z,39.62
2019-06-08T13:34:33.446Z,39.43
2019-06-08T13:37:02.803Z,40.16
2019-06-08T13:39:32.454Z,39.82
2019-06-08T13:42:02.011Z,38.79
2019-06-08T13:44:31.416Z,39.99
2019-06-08T13:47:00.805Z,41.46
2019-06-08T13:49:30.899Z,42.67
2019-06-08T13:52:00.468Z,43.67
2019-06-08T13:54:31.350Z,44.38
2019-06-08T13:57:00.892Z,45.62
2019-06-08T13:59:30.887Z,50.33
2019-06-08T14:02:00.432Z,56.48
2019-06-08T14:04:30.557Z,61.23
2019-06-08T14:06:59.954Z,63.95
2019-06-08T14:09:31.544Z,66.80
2019-06-08T14:12:00.438Z,67.70
2019-06-08T14:14:29.875Z,68.72
2019-06-08T14:16:59.362Z,68.05
2019-06-08T14:19:31.326Z,67.08
2019-06-08T14:21:59.969Z,65.84
2019-06-08T14:24:33.976Z,65.33
2019-06-08T14:27:00.428Z,65.47
2019-06-08T14:29:30.537Z,64.36
2019-06-08T14:31:59.969Z,64.81
2019-06-08T14:34:31.290Z,66.25
2019-06-08T14:37:00.430Z,68.51
2019-06-08T14:39:31.738Z,69.23
2019-06-08T14:42:01.026Z,69.53
2019-06-08T14:44:32.157Z,68.98
2019-06-08T14:47:09.738Z,68.65
2019-06-08T14:49:38.299Z,67.51
2019-06-08T14:52:07.963Z,66.86
2019-06-08T14:54:38.629Z,64.82
2019-06-08T14:57:08.109Z,64.04
2019-06-08T14:59:37.750Z,63.65
2019-06-08T15:02:07.876Z,63.66
2019-06-08T15:04:39.950Z,63.86
2019-06-08T15:07:09.614Z,64.46
2019-06-08T15:09:39.085Z,64.76
2019-06-08T15:12:09.231Z,65.28
2019-06-08T15:14:40.021Z,66.43
2019-06-08T15:17:09.470Z,67.49
2019-06-08T15:19:38.916Z,67.80
2019-06-08T15:22:11.055Z,69.30
2019-06-08T15:24:39.413Z,71.17
2019-06-08T15:27:08.785Z,73.12
2019-06-08T15:29:38.184Z,74.01
2019-06-08T15:32:08.139Z,74.70
2019-06-08T15:34:38.295Z,74.94
2019-06-08T15:37:09.158Z,75.38
2019-06-08T15:39:41.866Z,75.18
2019-06-08T15:42:11.278Z,74.87
2019-06-08T15:44:40.639Z,73.96
2019-06-08T15:47:10.198Z,72.78
2019-06-08T15:49:39.656Z,71.35
2019-06-08T15:52:09.136Z,70.41
2019-06-08T15:54:40.967Z,68.72
2019-06-08T15:57:09.846Z,68.11
2019-06-08T15:59:41.724Z,68.57
2019-06-08T16:02:11.381Z,68.68
2019-06-08T16:04:40.904Z,69.06
2019-06-08T16:07:10.393Z,68.73
2019-06-08T16:09:39.737Z,69.52
2019-06-08T16:12:09.246Z,69.83
2019-06-08T16:14:41.218Z,70.67
2019-06-08T16:17:09.795Z,72.27
2019-06-08T16:19:39.353Z,74.18
2019-06-08T16:22:08.880Z,75.23
2019-06-08T16:24:39.913Z,75.83
2019-06-08T16:27:09.448Z,75.86
2019-06-08T16:29:39.254Z,75.95
2019-06-08T16:32:09.670Z,75.82
2019-06-08T16:34:40.914Z,75.95
2019-06-08T16:37:10.536Z,75.80
2019-06-08T16:39:42.490Z,75.43
2019-06-08T16:42:11.907Z,75.28
2019-06-08T16:44:42.240Z,74.92
2019-06-08T16:47:11.671Z,74.96
2019-06-08T16:49:41.065Z,74.43
2019-06-08T16:52:10.458Z,74.19
2019-06-08T16:54:39.831Z,73.62
2019-06-08T16:57:10.923Z,73.35
2019-06-08T16:59:40.297Z,72.50
2019-06-08T17:02:09.956Z,71.10
2019-06-08T17:04:39.337Z,70.44
2019-06-08T17:07:08.728Z,69.50
2019-06-08T17:09:40.056Z,69.09
2019-06-08T17:12:09.724Z,68.61
2019-06-08T17:14:40.762Z,68.29
2019-06-08T17:17:10.411Z,68.01
2019-06-08T17:19:40.368Z,68.01
2019-06-08T17:22:09.790Z,68.53
2019-06-08T17:24:39.156Z,67.59
2019-06-08T17:27:08.546Z,67.60
2019-06-08T17:29:39.040Z,67.49
2019-06-08T17:32:09.838Z,67.08
2019-06-08T17:34:40.264Z,67.24
2019-06-08T17:37:09.862Z,67.25
2019-06-08T17:39:40.129Z,66.64
2019-06-08T17:42:09.598Z,66.72
2019-06-08T17:44:40.296Z,66.66
2019-06-08T17:47:09.965Z,66.51
2019-06-08T17:49:40.691Z,66.34
2019-06-08T17:52:11.094Z,66.26
2019-06-08T17:54:41.245Z,66.12
2019-06-08T17:57:10.648Z,65.79
2019-06-08T17:59:40.020Z,65.66
2019-06-08T18:02:13.797Z,65.47
2019-06-08T18:04:41.397Z,64.32
2019-06-08T18:07:11.732Z,64.30
2019-06-08T18:09:42.289Z,64.02
2019-06-08T18:12:12.189Z,64.13
2019-06-08T18:14:43.578Z,64.57
2019-06-08T18:17:13.171Z,64.56
2019-06-08T18:19:45.058Z,64.91
2019-06-08T18:22:15.725Z,65.02
2019-06-08T18:24:47.712Z,65.11
2019-06-08T18:27:18.120Z,65.35
2019-06-08T18:29:48.702Z,65.25
2019-06-08T18:32:19.609Z,65.00
2019-06-08T18:34:49.063Z,64.88
2019-06-08T18:37:18.482Z,65.08
2019-06-08T18:39:49.634Z,65.06
2019-06-08T18:42:21.144Z,65.16
2019-06-08T18:44:50.578Z,65.34
2019-06-08T18:47:20.042Z,65.14
2019-06-08T18:49:49.434Z,65.05
2019-06-08T18:52:18.816Z,65.07
2019-06-08T18:54:49.551Z,65.38
2019-06-08T18:57:19.262Z,65.66
2019-06-08T18:59:52.597Z,65.23
2019-06-08T19:02:19.739Z,64.94
2019-06-08T19:04:49.702Z,64.80
2019-06-08T19:07:19.245Z,64.77
2019-06-08T19:09:49.764Z,64.67
2019-06-08T19:12:19.826Z,64.89
2019-06-08T19:14:52.188Z,65.12
2019-06-08T19:17:21.380Z,65.02
2019-06-08T19:19:52.257Z,65.00
2019-06-08T19:22:22.138Z,64.55
2019-06-08T19:24:51.561Z,64.56
2019-06-08T19:27:21.099Z,64.61
2019-06-08T19:29:51.681Z,64.98
2019-06-08T19:32:21.602Z,65.32
2019-06-08T19:34:54.398Z,65.96
2019-06-08T19:37:22.581Z,65.95
2019-06-08T19:39:51.952Z,66.12
2019-06-08T19:42:35.558Z,66.42
2019-06-08T19:45:01.230Z,66.48
2019-06-08T19:47:23.637Z,66.35
2019-06-08T19:49:54.869Z,66.15
2019-06-08T19:52:24.299Z,66.59
2019-06-08T19:54:54.155Z,66.80
2019-06-08T19:57:23.539Z,66.94
2019-06-08T19:59:53.045Z,67.07
2019-06-08T20:02:22.435Z,67.13
2019-06-08T20:04:53.103Z,67.29
2019-06-08T20:07:23.910Z,67.28
2019-06-08T20:09:53.915Z,67.33
2019-06-08T20:12:23.445Z,67.50
2019-06-08T20:14:53.784Z,67.62
2019-06-08T20:17:23.399Z,67.80
2019-06-08T20:19:53.406Z,68.07
2019-06-08T20:22:22.972Z,68.31
2019-06-08T20:24:55.765Z,68.61
2019-06-08T20:27:27.626Z,68.95
2019-06-08T20:29:58.151Z,69.17
2019-06-08T20:32:28.200Z,69.46
2019-06-08T20:34:58.877Z,69.90
2019-06-08T20:37:28.500Z,70.21
2019-06-08T20:40:09.794Z,70.67
2019-06-08T20:42:29.147Z,70.79
2019-06-08T20:44:58.554Z,70.92
2019-06-08T20:47:28.040Z,71.34
2019-06-08T20:49:58.248Z,71.37
2019-06-08T20:52:28.221Z,71.30
2019-06-08T20:54:58.316Z,71.56
2019-06-08T20:57:28.749Z,71.70
2019-06-08T20:59:58.203Z,71.79
2019-06-08T21:02:28.432Z,71.86
2019-06-08T21:04:59.509Z,71.86
2019-06-08T21:07:29.032Z,72.03
2019-06-08T21:09:58.435Z,71.91
2019-06-08T21:12:28.431Z,71.86
2019-06-08T21:14:57.932Z,71.80
2019-06-08T21:17:27.669Z,71.82
2019-06-08T21:19:57.893Z,71.65
2019-06-08T21:22:27.910Z,71.71
2019-06-08T21:24:59.967Z,71.56
2019-06-08T21:27:28.448Z,71.57
2019-06-08T21:30:06.838Z,71.54
2019-06-08T21:32:31.453Z,71.56
2019-06-08T21:35:00.830Z,71.64
2019-06-08T21:37:31.312Z,71.69
2019-06-08T21:40:03.797Z,71.65
2019-06-08T21:42:32.984Z,71.69
2019-06-08T21:45:06.034Z,71.56
2019-06-08T21:47:33.764Z,71.74
2019-06-08T21:50:04.493Z,71.92
2019-06-08T21:52:34.181Z,71.76
2019-06-08T21:55:03.775Z,71.89
2019-06-08T21:57:33.304Z,72.17
2019-06-08T22:00:21.861Z,72.05
2019-06-08T22:02:37.574Z,72.12
2019-06-08T22:05:08.201Z,72.20
2019-06-08T22:07:37.882Z,72.37
2019-06-08T22:10:07.760Z,72.42
2019-06-08T22:12:40.241Z,72.69
2019-06-08T22:15:08.523Z,72.87
2019-06-08T22:17:38.438Z,72.77
2019-06-08T22:20:08.416Z,72.96
2019-06-08T22:22:38.786Z,73.04
2019-06-08T22:25:08.445Z,73.18
2019-06-08T22:27:38.312Z,73.26
2019-06-08T22:30:11.646Z,73.50
2019-06-08T22:32:39.207Z,73.52
2019-06-08T22:35:09.716Z,73.56
2019-06-08T22:37:39.169Z,73.85
2019-06-08T22:40:08.911Z,73.77
2019-06-08T22:42:38.590Z,73.93
2019-06-08T22:45:08.538Z,73.94
2019-06-08T22:47:38.718Z,74.08
2019-06-08T22:50:08.792Z,74.27
2019-06-08T22:52:38.355Z,74.37
2019-06-08T22:55:10.902Z,74.40
2019-06-08T22:57:39.242Z,74.56
2019-06-08T23:00:16.547Z,74.96
2019-06-08T23:02:40.113Z,75.24
2019-06-08T23:05:09.658Z,75.24
2019-06-08T23:07:39.074Z,75.65
2019-06-08T23:10:09.252Z,76.05
2019-06-08T23:12:38.659Z,76.38
2019-06-08T23:15:08.484Z,76.44
2019-06-08T23:17:38.784Z,76.46
2019-06-08T23:20:09.359Z,76.46
2019-06-08T23:22:38.864Z,76.52
2019-06-08T23:25:09.605Z,76.24
2019-06-08T23:27:40.104Z,76.17
2019-06-08T23:30:10.990Z,76.14
2019-06-08T23:32:40.369Z,76.10
2019-06-08T23:35:09.991Z,76.12
2019-06-08T23:37:39.554Z,76.08
2019-06-08T23:40:09.467Z,76.22
2019-06-08T23:42:38.880Z,76.01
2019-06-08T23:45:10.635Z,75.85
2019-06-08T23:47:39.746Z,75.74
2019-06-08T23:50:11.512Z,75.70
2019-06-08T23:52:40.633Z,75.61
2019-06-08T23:55:12.012Z,75.61
2019-06-08T23:57:41.616Z,75.60
